Time;durP1;ratioP1;P1;durP2;ratioP2;P2;SDS_P1;SDS_P2;PMS_P1;PMS_P2;Temp;Humidity;BMP_temperature;BMP_pressure;BME280_temperature;BME280_humidity;BME280_pressure;Samples;Min_cycle;Max_cycle;Signal;HPM_P1;HPM_P2
2022/11/14 00:00:42;;;;;;;0.50;0.50;;;;;;;6.28;100.00;100378.00;5109759;28;20728;-64
2022/11/14 00:03:10;;;;;;;0.83;0.83;;;;;;;6.26;100.00;100372.16;5110085;28;20620;-64
2022/11/14 00:05:40;;;;;;;0.60;0.60;;;;;;;6.24;100.00;100372.22;5109979;28;20225;-64
2022/11/14 00:08:07;;;;;;;0.80;0.80;;;;;;;6.13;100.00;100377.63;5110171;28;20728;-64
2022/11/14 00:10:35;;;;;;;0.87;0.87;;;;;;;6.09;100.00;100373.56;5110017;28;20259;-57
2022/11/14 00:13:02;;;;;;;1.13;0.47;;;;;;;6.08;100.00;100368.53;5109928;28;20197;-58
2022/11/14 00:15:29;;;;;;;2.00;1.30;;;;;;;6.05;100.00;100369.47;5109947;28;20236;-58
2022/11/14 00:17:55;;;;;;;1.90;0.90;;;;;;;5.95;100.00;100373.16;5110101;28;20193;-57
2022/11/14 00:20:22;;;;;;;0.90;0.90;;;;;;;5.88;100.00;100366.63;5109955;28;20346;-58
2022/11/14 00:22:49;;;;;;;0.80;0.80;;;;;;;5.90;100.00;100375.00;5109923;28;20200;-65
2022/11/14 00:25:16;;;;;;;1.17;0.70;;;;;;;6.03;100.00;100368.69;5110390;28;20221;-65
2022/11/14 00:27:44;;;;;;;1.50;0.60;;;;;;;6.01;100.00;100367.06;5110168;28;20194;-58
2022/11/14 00:30:11;;;;;;;1.07;1.07;;;;;;;5.90;100.00;100369.91;5109969;28;20221;-64
2022/11/14 00:32:38;;;;;;;1.07;1.07;;;;;;;5.89;100.00;100374.16;5110187;28;20258;-63
2022/11/14 00:35:05;;;;;;;0.80;0.80;;;;;;;5.96;100.00;100374.81;5110103;28;20240;-64
2022/11/14 00:37:32;;;;;;;0.40;0.40;;;;;;;6.03;100.00;100361.06;5109781;28;20197;-64
2022/11/14 00:39:59;;;;;;;1.27;1.17;;;;;;;6.02;100.00;100364.50;5110072;28;20217;-64
2022/11/14 00:42:26;;;;;;;0.80;0.80;;;;;;;6.04;100.00;100360.16;5109972;28;20647;-64
2022/11/14 00:44:54;;;;;;;3.20;0.83;;;;;;;5.95;100.00;100357.94;5109894;28;20216;-64
2022/11/14 00:47:21;;;;;;;1.10;0.83;;;;;;;6.04;100.00;100369.50;5109721;28;20577;-57
2022/11/14 00:49:47;;;;;;;0.77;0.77;;;;;;;5.95;100.00;100352.88;5109901;28;20221;-57
2022/11/14 00:52:14;;;;;;;1.03;1.03;;;;;;;5.86;100.00;100358.22;5109689;28;20193;-64
2022/11/14 00:54:41;;;;;;;0.47;0.47;;;;;;;5.83;100.00;100355.78;5109822;28;20641;-64
2022/11/14 00:57:08;;;;;;;0.97;0.87;;;;;;;5.92;100.00;100354.66;5109462;28;20716;-58
2022/11/14 00:59:34;;;;;;;0.67;0.67;;;;;;;5.93;100.00;100353.75;5109818;28;20709;-64
2022/11/14 01:02:03;;;;;;;0.57;0.57;;;;;;;5.98;100.00;100350.22;5109561;28;20193;-57
2022/11/14 01:04:29;;;;;;;0.53;0.53;;;;;;;6.01;100.00;100345.03;5109624;28;20233;-64
2022/11/14 01:06:56;;;;;;;0.90;0.80;;;;;;;6.00;100.00;100351.00;5109543;28;20208;-58
2022/11/14 01:09:23;;;;;;;0.30;0.30;;;;;;;6.01;100.00;100339.97;5109635;28;20221;-64
2022/11/14 01:11:50;;;;;;;0.47;0.47;;;;;;;5.92;100.00;100341.97;5109478;28;20211;-64
2022/11/14 01:14:17;;;;;;;0.60;0.60;;;;;;;5.89;100.00;100342.88;5112824;28;20213;-64
2022/11/14 01:16:43;;;;;;;0.90;0.90;;;;;;;5.85;100.00;100338.78;5113201;27;20229;-63
2022/11/14 01:19:11;;;;;;;0.97;0.70;;;;;;;5.79;100.00;100341.50;5113414;28;20224;-64
2022/11/14 01:21:38;;;;;;;1.33;1.07;;;;;;;5.75;100.00;100339.97;5113361;28;20262;-63
2022/11/14 01:24:06;;;;;;;1.03;0.93;;;;;;;5.81;100.00;100329.59;5112988;28;20224;-58
2022/11/14 01:26:33;;;;;;;0.30;0.27;;;;;;;5.79;100.00;100337.28;5113085;28;20198;-58
2022/11/14 01:28:59;;;;;;;0.30;0.30;;;;;;;5.80;100.00;100338.94;5113010;28;20202;-58
2022/11/14 01:31:26;;;;;;;1.30;0.47;;;;;;;5.72;100.00;100332.44;5112818;28;20201;-64
2022/11/14 01:33:54;;;;;;;0.90;0.87;;;;;;;5.72;100.00;100329.91;5112757;28;20204;-64
2022/11/14 01:36:22;;;;;;;1.00;0.93;;;;;;;5.75;100.00;100334.88;5113225;28;20829;-64
2022/11/14 01:38:52;;;;;;;1.50;1.40;;;;;;;5.68;100.00;100335.09;5112533;28;20569;-58
2022/11/14 01:41:20;;;;;;;0.70;0.70;;;;;;;5.70;100.00;100337.56;5112887;28;20201;-58
2022/11/14 01:43:47;;;;;;;0.63;0.63;;;;;;;5.70;100.00;100331.66;5112616;28;20701;-63
2022/11/14 01:46:17;;;;;;;0.47;0.47;;;;;;;5.77;100.00;100323.00;5112732;28;20193;-61
2022/11/14 01:48:48;;;;;;;0.80;0.80;;;;;;;5.72;100.00;100324.84;5112715;28;20193;-65
2022/11/14 01:51:21;;;;;;;0.60;0.60;;;;;;;5.70;100.00;100322.34;5112676;28;20193;-64
2022/11/14 01:53:53;;;;;;;2.70;0.70;;;;;;;5.77;100.00;100323.00;5112332;28;20194;-57
2022/11/14 01:56:26;;;;;;;1.40;1.30;;;;;;;5.72;100.00;100327.38;5112539;28;20236;-64
2022/11/14 01:58:58;;;;;;;1.53;1.37;;;;;;;5.71;100.00;100320.66;5112024;28;20194;-57
2022/11/14 02:01:25;;;;;;;1.43;0.77;;;;;;;5.80;100.00;100312.72;5112350;28;20204;-64
2022/11/14 02:03:54;;;;;;;0.20;0.20;;;;;;;5.86;100.00;100317.59;5112054;28;20284;-64
2022/11/14 02:06:23;;;;;;;0.50;0.50;;;;;;;5.77;100.00;100326.34;5111927;28;20205;-64
2022/11/14 02:08:52;;;;;;;0.80;0.80;;;;;;;5.78;100.00;100319.56;5111805;28;20201;-64
2022/11/14 02:11:19;;;;;;;0.43;0.43;;;;;;;5.75;100.00;100317.13;5112221;28;20205;-64
2022/11/14 02:13:46;;;;;;;0.37;0.37;;;;;;;5.75;100.00;100319.66;5111757;27;20189;-64
2022/11/14 02:16:13;;;;;;;0.53;0.53;;;;;;;5.72;100.00;100314.69;5111999;28;20232;-64
2022/11/14 02:18:40;;;;;;;3.23;1.07;;;;;;;5.72;100.00;100310.44;5112063;28;20196;-57
2022/11/14 02:21:08;;;;;;;0.50;0.50;;;;;;;5.71;100.00;100318.13;5111713;28;20204;-64
2022/11/14 02:23:35;;;;;;;0.90;0.90;;;;;;;5.58;100.00;100318.47;5111582;28;20267;-57
2022/11/14 02:26:01;;;;;;;0.67;0.67;;;;;;;5.58;100.00;100328.63;5111704;27;20760;-64
2022/11/14 02:28:28;;;;;;;0.90;0.90;;;;;;;5.44;100.00;100320.66;5111561;28;20670;-57
2022/11/14 02:30:55;;;;;;;1.03;0.77;;;;;;;5.35;100.00;100321.78;5111537;28;20221;-58
2022/11/14 02:33:22;;;;;;;0.83;0.83;;;;;;;5.30;100.00;100331.22;5111327;28;20242;-57
2022/11/14 02:35:49;;;;;;;0.60;0.60;;;;;;;5.26;100.00;100333.88;5111421;28;20225;-64
2022/11/14 02:38:17;;;;;;;0.80;0.80;;;;;;;5.25;100.00;100324.63;5111636;28;20189;-57
2022/11/14 02:40:44;;;;;;;0.90;0.70;;;;;;;5.15;100.00;100317.31;5111492;28;20213;-64
2022/11/14 02:43:11;;;;;;;0.50;0.50;;;;;;;5.21;100.00;100316.28;5111575;28;20863;-64
2022/11/14 02:45:38;;;;;;;1.30;0.50;;;;;;;5.19;100.00;100318.84;5111185;28;20217;-64
2022/11/14 02:48:05;;;;;;;0.47;0.47;;;;;;;5.15;100.00;100312.22;5111116;28;20203;-57
2022/11/14 02:50:32;;;;;;;0.30;0.30;;;;;;;5.13;100.00;100319.03;5111208;28;20224;-57
2022/11/14 02:52:59;;;;;;;1.77;1.67;;;;;;;5.22;100.00;100321.28;5111310;28;20193;-57
2022/11/14 02:55:27;;;;;;;0.57;0.57;;;;;;;5.31;100.00;100316.81;5110868;28;20239;-57
2022/11/14 02:57:54;;;;;;;1.03;0.60;;;;;;;5.40;100.00;100319.06;5110999;28;20193;-64
2022/11/14 03:00:21;;;;;;;0.27;0.27;;;;;;;5.41;100.00;100315.66;5111013;28;20702;-57
2022/11/14 03:02:48;;;;;;;0.20;0.20;;;;;;;5.52;100.00;100323.75;5111041;28;20738;-64
2022/11/14 03:05:14;;;;;;;0.97;0.97;;;;;;;5.58;100.00;100326.09;5110842;28;20674;-57
2022/11/14 03:07:41;;;;;;;0.63;0.63;;;;;;;5.84;100.00;100321.91;5110963;28;20201;-58
2022/11/14 03:10:09;;;;;;;0.93;0.50;;;;;;;5.88;100.00;100318.41;5111078;28;20226;-57
2022/11/14 03:12:37;;;;;;;1.07;0.77;;;;;;;5.86;100.00;100317.59;5110607;28;20197;-57
2022/11/14 03:15:05;;;;;;;1.80;1.13;;;;;;;5.99;100.00;100318.91;5111083;28;20217;-57
2022/11/14 03:17:32;;;;;;;0.60;0.60;;;;;;;6.07;100.00;100316.91;5110880;27;20225;-64
2022/11/14 03:19:59;;;;;;;0.47;0.47;;;;;;;5.97;100.00;100315.56;5110978;28;20274;-58
2022/11/14 03:22:26;;;;;;;0.43;0.43;;;;;;;6.07;100.00;100324.53;5110599;28;20258;-61
2022/11/14 03:24:53;;;;;;;0.47;0.47;;;;;;;6.09;100.00;100315.16;5110354;28;20225;-57
2022/11/14 03:27:23;;;;;;;0.77;0.77;;;;;;;6.07;100.00;100321.97;5110553;28;20205;-64
2022/11/14 03:29:51;;;;;;;0.90;0.80;;;;;;;6.20;100.00;100319.06;5111112;28;20256;-64
2022/11/14 03:32:18;;;;;;;0.43;0.43;;;;;;;6.16;100.00;100315.75;5110454;28;20197;-64
2022/11/14 03:34:45;;;;;;;0.70;0.70;;;;;;;6.12;100.00;100317.59;5110263;28;20225;-64
2022/11/14 03:37:11;;;;;;;1.07;0.97;;;;;;;6.18;100.00;100326.72;5109972;28;20517;-57
2022/11/14 03:39:38;;;;;;;0.83;0.73;;;;;;;6.04;100.00;100323.81;5110401;28;20225;-65
2022/11/14 03:42:05;;;;;;;0.23;0.23;;;;;;;6.09;100.00;100324.50;5110431;28;20193;-64
2022/11/14 03:44:32;;;;;;;0.73;0.73;;;;;;;6.23;100.00;100329.09;5110106;28;20221;-57
2022/11/14 03:47:00;;;;;;;0.20;0.20;;;;;;;6.24;100.00;100323.13;5110599;27;20201;-58
2022/11/14 03:49:27;;;;;;;0.20;0.20;;;;;;;6.29;100.00;100321.28;5110369;28;20221;-64
2022/11/14 03:51:53;;;;;;;0.50;0.50;;;;;;;6.27;100.00;100333.19;5110102;28;20200;-64
2022/11/14 03:54:20;;;;;;;0.30;0.30;;;;;;;6.29;100.00;100319.56;5110147;28;20213;-65
2022/11/14 03:56:47;;;;;;;0.40;0.40;;;;;;;6.16;100.00;100325.09;5110036;28;20233;-58
2022/11/14 03:59:14;;;;;;;0.40;0.40;;;;;;;6.20;100.00;100321.59;5110245;28;20220;-58
2022/11/14 04:01:40;;;;;;;0.20;0.20;;;;;;;6.32;100.00;100326.25;5110080;28;20204;-57
2022/11/14 04:04:11;;;;;;;0.40;0.40;;;;;;;6.35;100.00;100321.88;5109932;28;20216;-58
2022/11/14 04:06:37;;;;;;;1.00;1.00;;;;;;;6.50;100.00;100319.69;5110189;28;20232;-64
2022/11/14 04:09:05;;;;;;;1.13;0.90;;;;;;;6.51;100.00;100327.22;5109810;28;20217;-57
2022/11/14 04:11:32;;;;;;;0.50;0.50;;;;;;;6.42;100.00;100327.56;5109987;28;20693;-58
2022/11/14 04:13:58;;;;;;;0.97;0.83;;;;;;;6.48;100.00;100327.34;5109847;28;20204;-57
2022/11/14 04:16:25;;;;;;;0.53;0.53;;;;;;;6.45;100.00;100327.44;5109830;28;20221;-57
2022/11/14 04:18:52;;;;;;;0.70;0.70;;;;;;;6.38;100.00;100331.09;5109579;28;20204;-64
2022/11/14 04:21:20;;;;;;;0.57;0.57;;;;;;;6.41;100.00;100331.00;5109931;28;20197;-58
2022/11/14 04:23:47;;;;;;;1.23;1.10;;;;;;;6.43;100.00;100329.25;5109881;28;20730;-57
2022/11/14 04:26:14;;;;;;;0.40;0.40;;;;;;;6.31;100.00;100324.56;5110239;28;20201;-64
2022/11/14 04:28:40;;;;;;;0.67;0.67;;;;;;;6.22;100.00;100324.88;5110030;28;20216;-58
2022/11/14 04:31:07;;;;;;;1.77;1.00;;;;;;;6.22;100.00;100324.88;5109779;28;20266;-57
2022/11/14 04:33:34;;;;;;;1.33;1.07;;;;;;;6.21;100.00;100323.25;5109952;28;20201;-65
2022/11/14 04:36:01;;;;;;;1.03;0.97;;;;;;;6.18;100.00;100323.34;5109640;28;20213;-64
2022/11/14 04:38:29;;;;;;;1.47;1.37;;;;;;;6.19;100.00;100325.00;5109767;28;20673;-64
2022/11/14 04:40:55;;;;;;;1.07;1.03;;;;;;;6.24;100.00;100323.13;5109770;28;20356;-57
2022/11/14 04:43:22;;;;;;;1.10;0.70;;;;;;;6.29;100.00;100331.44;5109606;28;20624;-64
2022/11/14 04:45:49;;;;;;;0.60;0.60;;;;;;;6.47;100.00;100330.78;5109714;28;20213;-58
2022/11/14 04:48:16;;;;;;;0.53;0.53;;;;;;;6.49;100.00;100334.09;5112978;28;20201;-58
2022/11/14 04:50:42;;;;;;;0.87;0.87;;;;;;;6.57;100.00;100333.81;5113715;28;20247;-64
2022/11/14 04:53:09;;;;;;;0.67;0.67;;;;;;;6.67;100.00;100326.69;5113622;28;21034;-57
2022/11/14 04:55:37;;;;;;;0.70;0.70;;;;;;;6.70;100.00;100321.50;5113199;28;20705;-64
2022/11/14 04:58:04;;;;;;;0.70;0.70;;;;;;;6.77;100.00;100333.09;5113472;28;20278;-57
2022/11/14 05:00:31;;;;;;;1.47;1.37;;;;;;;6.76;100.00;100334.00;5113019;28;20390;-58
2022/11/14 05:02:59;;;;;;;0.80;0.80;;;;;;;6.78;100.00;100332.22;5113303;28;20197;-61
2022/11/14 05:05:25;;;;;;;1.33;1.23;;;;;;;6.71;100.00;100334.13;5113328;28;20669;-64
2022/11/14 05:07:53;;;;;;;0.63;0.63;;;;;;;6.95;100.00;100332.44;5113162;28;20701;-65
2022/11/14 05:10:20;;;;;;;0.57;0.57;;;;;;;6.96;100.00;100326.44;5113260;27;20220;-57
2022/11/14 05:12:48;;;;;;;0.87;0.87;;;;;;;6.95;100.00;100324.81;5113067;28;20247;-65
2022/11/14 05:15:15;;;;;;;0.67;0.67;;;;;;;6.99;100.00;100328.88;5113179;28;20217;-64
2022/11/14 05:17:42;;;;;;;1.63;1.53;;;;;;;7.10;100.00;100325.09;5113077;27;20769;-58
2022/11/14 05:20:10;;;;;;;0.60;0.60;;;;;;;7.09;100.00;100331.06;5113055;28;20706;-64
2022/11/14 05:22:37;;;;;;;1.43;1.33;;;;;;;7.07;100.00;100332.84;5112936;28;20200;-57
2022/11/14 05:25:04;;;;;;;1.40;1.10;;;;;;;7.23;100.00;100331.38;5112904;28;20225;-65
2022/11/14 05:27:31;;;;;;;0.83;0.83;;;;;;;7.30;100.00;100327.72;5113086;28;20266;-65
2022/11/14 05:29:59;;;;;;;1.20;1.10;;;;;;;7.33;100.00;100334.38;5112837;27;20250;-64
2022/11/14 05:32:26;;;;;;;1.93;1.03;;;;;;;7.33;100.00;100335.25;5112744;28;20193;-64
2022/11/14 05:34:53;;;;;;;3.33;1.20;;;;;;;7.33;100.00;100334.38;5113027;28;20240;-64
2022/11/14 05:37:20;;;;;;;2.10;0.60;;;;;;;7.33;100.00;100330.16;5112773;27;20283;-58
2022/11/14 05:39:46;;;;;;;0.53;0.53;;;;;;;7.36;100.00;100332.56;5112798;28;20243;-58
2022/11/14 05:42:13;;;;;;;0.80;0.80;;;;;;;7.39;100.00;100339.25;5112673;28;20270;-65
2022/11/14 05:44:40;;;;;;;0.80;0.80;;;;;;;7.44;100.00;100340.72;5112675;27;20755;-65
2022/11/14 05:47:08;;;;;;;0.73;0.73;;;;;;;7.46;100.00;100348.28;5112399;28;20828;-57
2022/11/14 05:49:35;;;;;;;0.30;0.30;;;;;;;7.32;100.00;100350.53;5112564;28;20223;-65
2022/11/14 05:52:02;;;;;;;0.80;0.80;;;;;;;7.33;100.00;100355.59;5112627;28;20205;-58
2022/11/14 05:54:28;;;;;;;0.87;0.87;;;;;;;7.22;100.00;100360.25;5112375;27;20224;-64
2022/11/14 05:56:55;;;;;;;0.70;0.70;;;;;;;7.19;100.00;100365.47;5112098;28;20217;-58
2022/11/14 05:59:22;;;;;;;0.67;0.47;;;;;;;7.29;100.00;100371.84;5111399;28;20727;-65
2022/11/14 06:01:49;;;;;;;1.17;1.07;;;;;;;7.31;100.00;100364.16;5112064;28;20742;-64
2022/11/14 06:04:17;;;;;;;0.80;0.80;;;;;;;7.26;100.00;100367.69;5112120;28;20217;-64
2022/11/14 06:06:43;;;;;;;0.53;0.53;;;;;;;7.09;100.00;100375.13;5112531;28;20209;-57
2022/11/14 06:09:10;;;;;;;0.60;0.60;;;;;;;6.95;100.00;100372.25;5112057;28;20294;-64
2022/11/14 06:11:37;;;;;;;0.60;0.60;;;;;;;6.82;100.00;100382.06;5112381;28;20622;-57
2022/11/14 06:14:04;;;;;;;0.70;0.70;;;;;;;6.60;100.00;100381.97;5111869;28;20709;-57
2022/11/14 06:16:31;;;;;;;0.73;0.73;;;;;;;6.44;100.00;100381.69;5112073;28;20202;-57
